createdAt,value
2018-06-05T00:00:50.924Z,18.70
2018-06-05T00:03:19.297Z,18.43
2018-06-05T00:05:47.620Z,18.57
2018-06-05T00:08:15.945Z,20.13
2018-06-05T00:10:44.296Z,20.37
2018-06-05T00:13:12.648Z,24.57
2018-06-05T00:15:40.997Z,19.53
2018-06-05T00:18:09.322Z,16.57
2018-06-05T00:20:37.685Z,20.97
2018-06-05T00:23:06.102Z,16.73
2018-06-05T00:25:34.567Z,19.13
2018-06-05T00:28:03.063Z,21.30
2018-06-05T00:30:31.371Z,21.53
2018-06-05T00:32:59.698Z,19.83
2018-06-05T00:35:28.028Z,20.60
2018-06-05T00:37:56.402Z,23.00
2018-06-05T00:40:24.787Z,22.97
2018-06-05T00:42:53.099Z,25.53
2018-06-05T00:45:21.423Z,24.93
2018-06-05T00:47:49.739Z,21.67
2018-06-05T00:50:18.099Z,24.77
2018-06-05T00:52:46.456Z,23.60
2018-06-05T00:55:14.883Z,24.73
2018-06-05T00:57:43.207Z,26.37
2018-06-05T01:00:11.511Z,23.53
2018-06-05T01:02:39.842Z,23.17
2018-06-05T01:05:08.243Z,23.13
2018-06-05T01:07:36.558Z,24.27
2018-06-05T01:10:05.479Z,25.57
2018-06-05T01:12:33.912Z,24.00
2018-06-05T01:15:02.235Z,26.50
2018-06-05T01:17:30.620Z,23.77
2018-06-05T01:19:58.981Z,26.80
2018-06-05T01:22:27.287Z,26.17
2018-06-05T01:24:55.632Z,26.67
2018-06-05T01:27:23.927Z,25.30
2018-06-05T01:29:52.277Z,27.83
2018-06-05T01:32:20.597Z,27.07
2018-06-05T01:34:48.957Z,28.10
2018-06-05T01:37:17.377Z,23.97
2018-06-05T01:39:45.772Z,27.37
2018-06-05T01:42:14.102Z,28.10
2018-06-05T01:44:42.524Z,27.73
2018-06-05T01:47:10.952Z,29.53
2018-06-05T01:49:41.258Z,32.73
2018-06-05T01:52:09.961Z,33.10
2018-06-05T01:54:38.293Z,34.90
2018-06-05T01:57:06.596Z,31.00
2018-06-05T01:59:34.944Z,26.23
2018-06-05T02:02:03.306Z,36.83
2018-06-05T02:04:31.686Z,30.87
2018-06-05T02:07:00.067Z,26.80
2018-06-05T02:09:28.430Z,41.23
2018-06-05T02:11:56.783Z,31.27
2018-06-05T02:14:25.095Z,33.70
2018-06-05T02:16:53.433Z,35.43
2018-06-05T02:19:21.855Z,31.70
2018-06-05T02:21:50.259Z,33.23
2018-06-05T02:24:18.580Z,31.70
2018-06-05T02:26:47.059Z,28.97
2018-06-05T02:29:15.379Z,34.93
2018-06-05T02:31:43.766Z,35.23
2018-06-05T02:34:12.094Z,32.57
2018-06-05T02:36:40.612Z,31.37
2018-06-05T02:39:09.003Z,41.97
2018-06-05T02:41:37.392Z,35.60
2018-06-05T02:44:05.739Z,33.03
2018-06-05T02:46:34.139Z,35.93
2018-06-05T02:49:02.642Z,31.17
2018-06-05T02:51:30.975Z,31.30
2018-06-05T02:53:59.355Z,29.80
2018-06-05T02:56:27.653Z,31.33
2018-06-05T02:58:56.065Z,32.10
2018-06-05T03:01:24.603Z,35.03
2018-06-05T03:03:52.978Z,33.73
2018-06-05T03:06:21.292Z,37.97
2018-06-05T03:08:49.715Z,35.57
2018-06-05T03:11:18.095Z,32.20
2018-06-05T03:13:46.398Z,27.30
2018-06-05T03:16:14.782Z,30.37
2018-06-05T03:18:43.262Z,37.90
2018-06-05T03:21:11.665Z,36.13
2018-06-05T03:23:39.991Z,36.20
2018-06-05T03:26:08.317Z,30.63
2018-06-05T03:28:36.762Z,30.87
2018-06-05T03:31:06.043Z,30.87
2018-06-05T03:33:34.540Z,32.63
2018-06-05T03:36:02.861Z,34.67
2018-06-05T03:38:31.163Z,34.40
2018-06-05T03:40:59.475Z,31.13
2018-06-05T03:43:27.809Z,30.43
2018-06-05T03:45:56.215Z,31.07
2018-06-05T03:48:24.605Z,33.93
2018-06-05T03:50:52.924Z,32.93
2018-06-05T03:53:21.300Z,29.87
2018-06-05T03:55:49.630Z,28.73
2018-06-05T03:58:17.995Z,33.30
2018-06-05T04:00:46.401Z,36.97
2018-06-05T04:03:14.747Z,30.20
2018-06-05T04:05:43.174Z,29.20
2018-06-05T04:08:11.510Z,32.80
2018-06-05T04:10:39.878Z,26.00
2018-06-05T04:13:08.274Z,33.70
2018-06-05T04:15:36.656Z,35.33
2018-06-05T04:18:05.947Z,32.13
2018-06-05T04:20:34.350Z,29.67
2018-06-05T04:23:02.702Z,33.43
2018-06-05T04:25:31.002Z,32.57
2018-06-05T04:27:59.384Z,30.50
2018-06-05T04:30:27.980Z,34.97
2018-06-05T04:32:56.417Z,28.80
2018-06-05T04:35:24.769Z,34.30
2018-06-05T04:37:53.101Z,34.77
2018-06-05T04:40:21.483Z,28.87
2018-06-05T04:42:49.923Z,27.73
2018-06-05T04:45:18.305Z,35.73
2018-06-05T04:47:46.828Z,26.37
2018-06-05T04:50:15.208Z,31.90
2018-06-05T04:52:43.699Z,25.67
2018-06-05T04:55:12.076Z,32.70
2018-06-05T04:57:41.003Z,23.83
2018-06-05T05:00:09.483Z,29.83
2018-06-05T05:02:37.988Z,29.63
2018-06-05T05:05:06.353Z,30.67
2018-06-05T05:07:34.663Z,24.27
2018-06-05T05:10:02.971Z,32.00
2018-06-05T05:12:31.362Z,22.63
2018-06-05T05:14:59.724Z,29.83
2018-06-05T05:17:28.103Z,28.60
2018-06-05T05:19:56.440Z,27.07
2018-06-05T05:22:24.825Z,23.83
2018-06-05T05:24:53.264Z,60.53
2018-06-05T05:27:21.749Z,31.00
2018-06-05T05:29:50.174Z,30.73
2018-06-05T05:32:18.522Z,29.73
2018-06-05T05:34:46.886Z,28.77
2018-06-05T05:37:15.200Z,33.77
2018-06-05T05:39:43.558Z,27.07
2018-06-05T05:42:12.094Z,26.27
2018-06-05T05:44:41.235Z,28.97
2018-06-05T05:47:09.850Z,24.77
2018-06-05T05:49:38.205Z,28.27
2018-06-05T05:52:06.639Z,26.80
2018-06-05T05:54:35.048Z,27.03
2018-06-05T05:57:03.454Z,31.17
2018-06-05T05:59:31.947Z,25.73
2018-06-05T06:02:00.357Z,31.60
2018-06-05T06:04:28.690Z,29.40
2018-06-05T06:06:57.152Z,25.23
2018-06-05T06:09:25.515Z,22.03
2018-06-05T06:11:53.937Z,21.97
2018-06-05T06:14:22.343Z,26.13
2018-06-05T06:16:50.677Z,21.57
2018-06-05T06:19:19.041Z,27.03
2018-06-05T06:21:47.344Z,25.53
2018-06-05T06:24:15.675Z,24.40
2018-06-05T06:26:44.036Z,27.30
2018-06-05T06:29:12.446Z,24.73
2018-06-05T06:31:40.804Z,22.77
2018-06-05T06:34:09.127Z,26.27
2018-06-05T06:36:37.447Z,25.70
2018-06-05T06:39:09.283Z,21.40
2018-06-05T06:41:38.055Z,25.43
2018-06-05T06:44:06.447Z,25.33
2018-06-05T06:46:34.893Z,27.73
2018-06-05T06:49:03.337Z,21.27
2018-06-05T06:51:31.676Z,23.17
2018-06-05T06:54:00.040Z,21.70
2018-06-05T06:56:28.464Z,23.20
2018-06-05T06:58:56.818Z,23.70
2018-06-05T07:01:25.203Z,26.07
2018-06-05T07:03:54.218Z,22.83
2018-06-05T07:06:22.571Z,25.70
2018-06-05T07:08:50.994Z,26.03
2018-06-05T07:11:19.459Z,29.37
2018-06-05T07:13:47.787Z,23.63
2018-06-05T07:16:16.166Z,40.17
2018-06-05T07:18:44.542Z,23.03
2018-06-05T07:21:12.863Z,21.30
2018-06-05T07:23:41.228Z,25.83
2018-06-05T07:26:09.541Z,23.17
2018-06-05T07:28:37.938Z,25.27
2018-06-05T07:31:07.083Z,26.53
2018-06-05T07:33:35.494Z,23.53
2018-06-05T07:36:03.849Z,22.27
2018-06-05T07:38:32.190Z,24.87
2018-06-05T07:41:00.562Z,18.67
2018-06-05T07:43:28.958Z,19.77
2018-06-05T07:45:57.374Z,21.20
2018-06-05T07:48:25.778Z,26.07
2018-06-05T07:50:54.087Z,24.00
2018-06-05T07:53:22.547Z,25.20
2018-06-05T07:55:50.901Z,24.13
2018-06-05T07:58:19.327Z,25.70
2018-06-05T08:00:47.676Z,26.30
2018-06-05T08:03:16.034Z,29.50
2018-06-05T08:05:44.424Z,26.23
2018-06-05T08:08:12.787Z,28.87
2018-06-05T08:10:41.173Z,32.07
2018-06-05T08:13:09.572Z,26.57
2018-06-05T08:15:38.095Z,26.43
2018-06-05T08:18:06.459Z,25.63
2018-06-05T08:20:34.815Z,26.20
2018-06-05T08:23:03.167Z,27.73
2018-06-05T08:25:31.607Z,29.93
2018-06-05T08:28:00.044Z,29.53
2018-06-05T08:30:28.454Z,33.70
2018-06-05T08:32:56.800Z,34.13
2018-06-05T08:35:25.115Z,33.57
2018-06-05T08:37:53.495Z,35.50
2018-06-05T08:40:21.807Z,33.73
2018-06-05T08:42:50.255Z,28.17
2018-06-05T08:45:18.634Z,34.13
2018-06-05T08:47:46.986Z,36.33
2018-06-05T08:50:15.330Z,35.77
2018-06-05T08:52:43.835Z,31.40
2018-06-05T08:55:12.329Z,33.03
2018-06-05T08:57:40.757Z,35.80
2018-06-05T09:00:09.239Z,28.27
2018-06-05T09:02:37.641Z,33.93
2018-06-05T09:05:06.086Z,35.00
2018-06-05T09:07:34.515Z,28.83
2018-06-05T09:10:03.007Z,26.10
2018-06-05T09:12:31.471Z,27.37
2018-06-05T09:14:59.790Z,36.17
2018-06-05T09:17:28.128Z,33.17
2018-06-05T09:19:56.523Z,33.57
2018-06-05T09:22:24.976Z,33.03
2018-06-05T09:24:53.467Z,39.80
2018-06-05T09:27:21.806Z,36.67
2018-06-05T09:29:50.137Z,37.07
2018-06-05T09:32:18.514Z,35.03
2018-06-05T09:34:46.882Z,39.23
2018-06-05T09:37:15.306Z,34.93
2018-06-05T09:39:43.753Z,38.47
2018-06-05T09:42:12.119Z,38.40
2018-06-05T09:44:40.493Z,32.67
2018-06-05T09:47:09.355Z,38.40
2018-06-05T09:49:37.875Z,34.67
2018-06-05T09:52:06.265Z,37.23
2018-06-05T09:54:34.575Z,33.57
2018-06-05T09:57:02.983Z,33.23
2018-06-05T09:59:31.301Z,34.87
2018-06-05T10:01:59.642Z,31.00
2018-06-05T10:04:28.040Z,31.03
2018-06-05T10:06:56.517Z,32.23
2018-06-05T10:09:24.982Z,29.87
2018-06-05T10:11:53.322Z,34.00
2018-06-05T10:14:21.738Z,28.63
2018-06-05T10:16:50.110Z,35.43
2018-06-05T10:19:18.594Z,33.83
2018-06-05T10:21:46.984Z,34.43
2018-06-05T10:24:15.332Z,34.83
2018-06-05T10:26:43.683Z,33.13
2018-06-05T10:29:12.091Z,34.00
2018-06-05T10:31:40.434Z,35.87
2018-06-05T10:34:08.916Z,35.40
2018-06-05T10:36:37.429Z,29.87
2018-06-05T10:39:07.740Z,35.40
2018-06-05T10:41:36.291Z,43.27
2018-06-05T10:44:04.717Z,36.30
2018-06-05T10:46:33.042Z,34.93
2018-06-05T10:49:01.434Z,43.93
2018-06-05T10:51:29.796Z,32.60
2018-06-05T10:53:58.239Z,37.03
2018-06-05T10:56:26.668Z,38.67
2018-06-05T10:58:55.021Z,38.20
2018-06-05T11:01:23.355Z,34.67
2018-06-05T11:03:51.751Z,39.20
2018-06-05T11:06:20.072Z,35.83
2018-06-05T11:08:48.484Z,33.77
2018-06-05T11:11:16.956Z,36.10
2018-06-05T11:13:45.303Z,34.43
2018-06-05T11:16:13.680Z,34.03
2018-06-05T11:18:42.102Z,38.60
2018-06-05T11:21:10.520Z,36.03
2018-06-05T11:23:39.168Z,35.53
2018-06-05T11:26:07.564Z,32.07
2018-06-05T11:28:35.972Z,35.80
2018-06-05T11:31:04.324Z,38.37
2018-06-05T11:33:32.695Z,37.00
2018-06-05T11:36:01.087Z,33.30
2018-06-05T11:38:29.519Z,36.43
2018-06-05T11:40:57.885Z,36.23
2018-06-05T11:43:26.241Z,39.80
2018-06-05T11:45:54.578Z,38.40
2018-06-05T11:48:23.051Z,39.20
2018-06-05T11:50:51.479Z,39.63
2018-06-05T11:53:19.888Z,40.00
2018-06-05T11:55:48.252Z,40.43
2018-06-05T11:58:16.601Z,35.07
2018-06-05T12:00:45.004Z,38.73
2018-06-05T12:03:13.412Z,37.90
2018-06-05T12:05:41.928Z,35.33
2018-06-05T12:08:10.380Z,33.23
2018-06-05T12:10:38.711Z,35.77
2018-06-05T12:13:07.069Z,38.60
2018-06-05T12:15:35.469Z,33.57
2018-06-05T12:18:03.879Z,31.73
2018-06-05T12:20:32.336Z,37.30
2018-06-05T12:23:00.728Z,35.47
2018-06-05T12:25:29.110Z,33.57
2018-06-05T12:27:57.442Z,39.87
2018-06-05T12:30:25.877Z,38.20
2018-06-05T12:32:54.359Z,35.90
2018-06-05T12:35:22.779Z,32.73
2018-06-05T12:37:51.160Z,34.77
2018-06-05T12:40:19.523Z,37.70
2018-06-05T12:42:47.871Z,34.30
2018-06-05T12:45:16.287Z,40.93
2018-06-05T12:47:44.740Z,35.70
2018-06-05T12:50:13.096Z,41.60
2018-06-05T12:52:41.472Z,42.07
2018-06-05T12:55:09.845Z,36.93
2018-06-05T12:57:38.270Z,36.60
2018-06-05T13:00:07.630Z,37.40
2018-06-05T13:02:36.041Z,42.63
2018-06-05T13:05:04.605Z,32.57
2018-06-05T13:07:32.975Z,31.37
2018-06-05T13:10:01.374Z,31.37
2018-06-05T13:12:29.722Z,29.17
2018-06-05T13:14:59.246Z,37.50
2018-06-05T13:17:27.614Z,37.90
2018-06-05T13:19:56.055Z,38.27
2018-06-05T13:22:24.556Z,40.20
2018-06-05T13:24:52.890Z,49.33
2018-06-05T13:27:21.224Z,44.90
2018-06-05T13:29:49.612Z,51.27
2018-06-05T13:32:18.112Z,38.70
2018-06-05T13:34:46.724Z,28.77
2018-06-05T13:37:15.251Z,41.17
2018-06-05T13:39:43.699Z,34.87
2018-06-05T13:42:12.052Z,38.80
2018-06-05T13:44:40.446Z,36.23
2018-06-05T13:47:09.137Z,41.50
2018-06-05T13:49:37.907Z,38.80
2018-06-05T13:52:06.501Z,39.53
2018-06-05T13:54:34.964Z,39.00
2018-06-05T13:57:03.487Z,42.77
2018-06-05T13:59:31.839Z,42.27
2018-06-05T14:02:00.279Z,37.10
2018-06-05T14:04:28.738Z,42.80
2018-06-05T14:06:57.116Z,40.27
2018-06-05T14:09:25.493Z,48.40
2018-06-05T14:11:54.001Z,40.00
2018-06-05T14:14:22.992Z,38.30
2018-06-05T14:16:51.523Z,42.40
2018-06-05T14:19:19.999Z,33.40
2018-06-05T14:21:48.439Z,42.80
2018-06-05T14:24:16.839Z,39.57
2018-06-05T14:26:45.374Z,39.13
2018-06-05T14:29:13.757Z,33.60
2018-06-05T14:31:42.213Z,38.93
2018-06-05T14:34:10.840Z,35.10
2018-06-05T14:36:39.353Z,30.27
2018-06-05T14:39:09.144Z,42.27
2018-06-05T14:41:37.988Z,32.63
2018-06-05T14:44:06.784Z,41.23
2018-06-05T14:46:35.318Z,29.10
2018-06-05T14:49:03.742Z,31.80
2018-06-05T14:51:32.172Z,36.37
2018-06-05T14:54:02.270Z,28.73
2018-06-05T14:56:30.688Z,34.20
2018-06-05T14:58:59.198Z,30.27
2018-06-05T15:01:27.615Z,32.87
2018-06-05T15:03:56.023Z,29.93
2018-06-05T15:06:24.433Z,32.70
2018-06-05T15:08:52.839Z,33.40
2018-06-05T15:11:21.252Z,34.90
2018-06-05T15:13:49.704Z,34.70
2018-06-05T15:16:18.861Z,32.23
2018-06-05T15:18:47.359Z,35.60
2018-06-05T15:21:17.788Z,32.63
2018-06-05T15:23:55.988Z,33.70
2018-06-05T15:26:24.603Z,30.87
2018-06-05T15:28:52.990Z,31.77
2018-06-05T15:31:21.511Z,31.23
2018-06-05T15:33:50.193Z,30.83
2018-06-05T15:36:19.099Z,33.53
2018-06-05T15:38:47.517Z,35.10
2018-06-05T15:41:16.048Z,39.20
2018-06-05T15:44:27.161Z,33.20
2018-06-05T15:46:55.475Z,34.70
2018-06-05T15:49:23.839Z,29.70
2018-06-05T15:51:52.406Z,32.40
2018-06-05T15:54:20.812Z,32.00
2018-06-05T15:56:49.250Z,33.43
2018-06-05T15:59:17.625Z,34.90
2018-06-05T16:01:45.938Z,30.90
2018-06-05T16:04:14.291Z,33.53
2018-06-05T16:06:42.795Z,31.77
2018-06-05T16:09:11.225Z,36.53
2018-06-05T16:11:39.679Z,26.10
2018-06-05T16:14:08.027Z,27.73
2018-06-05T16:16:36.387Z,34.63
2018-06-05T16:19:04.863Z,28.73
2018-06-05T16:21:33.420Z,29.30
2018-06-05T16:24:01.801Z,32.00
2018-06-05T16:26:30.232Z,32.57
2018-06-05T16:28:58.711Z,31.47
2018-06-05T16:31:27.062Z,35.00
2018-06-05T16:33:55.476Z,30.33
2018-06-05T16:36:23.867Z,31.30
2018-06-05T16:38:52.244Z,33.77
2018-06-05T16:41:20.618Z,27.53
2018-06-05T16:43:48.995Z,30.27
2018-06-05T16:46:17.338Z,23.50
2018-06-05T16:48:45.773Z,30.83
2018-06-05T16:51:14.152Z,28.03
2018-06-05T16:53:42.551Z,26.73
2018-06-05T16:56:10.915Z,29.90
2018-06-05T16:58:39.241Z,26.57
2018-06-05T17:01:07.640Z,27.80
2018-06-05T17:03:36.955Z,24.93
2018-06-05T17:06:05.427Z,25.80
2018-06-05T17:08:33.931Z,28.13
2018-06-05T17:11:02.280Z,29.00
2018-06-05T17:13:30.619Z,29.33
2018-06-05T17:15:58.931Z,27.53
2018-06-05T17:18:27.343Z,29.80
2018-06-05T17:20:55.866Z,26.87
2018-06-05T17:23:24.275Z,34.33
2018-06-05T17:25:52.786Z,36.63
2018-06-05T17:28:21.714Z,35.93
2018-06-05T17:30:50.007Z,36.77
2018-06-05T17:33:18.407Z,32.13
2018-06-05T17:35:46.788Z,32.57
2018-06-05T17:38:15.134Z,30.63
2018-06-05T17:40:43.618Z,38.53
2018-06-05T17:43:11.939Z,39.90
2018-06-05T17:45:40.259Z,35.43
2018-06-05T17:48:08.631Z,36.70
2018-06-05T17:50:37.031Z,39.73
2018-06-05T17:53:05.434Z,39.10
2018-06-05T17:55:33.896Z,35.87
2018-06-05T17:58:02.273Z,40.27
2018-06-05T18:00:30.648Z,37.77
2018-06-05T18:02:59.030Z,36.40
2018-06-05T18:05:27.520Z,33.13
2018-06-05T18:07:55.851Z,36.60
2018-06-05T18:10:24.187Z,33.20
2018-06-05T18:12:52.563Z,34.73
2018-06-05T18:15:20.967Z,26.97
2018-06-05T18:17:49.369Z,27.53
2018-06-05T18:20:17.775Z,24.43
2018-06-05T18:22:46.087Z,25.07
2018-06-05T18:25:14.418Z,24.03
2018-06-05T18:27:42.831Z,28.27
2018-06-05T18:30:11.189Z,30.23
2018-06-05T18:32:39.719Z,22.47
2018-06-05T18:35:08.101Z,24.90
2018-06-05T18:37:36.536Z,26.83
2018-06-05T18:40:05.103Z,24.57
2018-06-05T18:42:33.507Z,23.53
2018-06-05T18:45:01.943Z,25.97
2018-06-05T18:47:30.317Z,23.43
2018-06-05T18:49:58.851Z,24.70
2018-06-05T18:52:27.187Z,23.00
2018-06-05T18:54:55.503Z,29.73
2018-06-05T18:57:23.901Z,25.40
2018-06-05T18:59:52.281Z,23.00
2018-06-05T19:02:20.684Z,22.93
2018-06-05T19:04:49.005Z,27.13
2018-06-05T19:07:17.375Z,25.13
2018-06-05T19:09:45.754Z,23.17
2018-06-05T19:12:14.193Z,21.13
2018-06-05T19:14:42.552Z,25.10
2018-06-05T19:17:10.935Z,24.10
2018-06-05T19:19:39.471Z,23.33
2018-06-05T19:22:07.791Z,25.53
2018-06-05T19:24:36.222Z,31.47
2018-06-05T19:27:04.635Z,28.53
2018-06-05T19:29:33.142Z,23.77
2018-06-05T19:32:01.601Z,24.83
2018-06-05T19:34:29.855Z,26.57
2018-06-05T19:36:58.205Z,28.30
2018-06-05T19:39:26.647Z,26.77
2018-06-05T19:41:55.082Z,23.00
2018-06-05T19:44:23.558Z,26.47
2018-06-05T19:46:51.957Z,26.67
2018-06-05T19:49:20.287Z,34.93
2018-06-05T19:51:48.617Z,32.67
2018-06-05T19:54:16.990Z,32.20
2018-06-05T19:56:45.554Z,28.07
2018-06-05T19:59:13.908Z,28.90
2018-06-05T20:01:42.302Z,30.83
2018-06-05T20:04:10.607Z,30.27
2018-06-05T20:06:39.027Z,31.50
2018-06-05T20:09:08.535Z,33.50
2018-06-05T20:11:36.949Z,31.40
2018-06-05T20:14:05.453Z,36.30
2018-06-05T20:16:33.777Z,28.47
2018-06-05T20:19:02.102Z,28.93
2018-06-05T20:21:30.406Z,31.33
2018-06-05T20:23:58.838Z,33.37
2018-06-05T20:26:27.231Z,34.27
2018-06-05T20:28:55.574Z,33.47
2018-06-05T20:31:23.952Z,33.33
2018-06-05T20:33:52.298Z,29.83
2018-06-05T20:36:20.702Z,35.63
2018-06-05T20:38:49.171Z,37.90
2018-06-05T20:41:17.570Z,40.83
2018-06-05T20:43:45.987Z,39.13
2018-06-05T20:46:14.295Z,38.60
2018-06-05T20:48:42.625Z,33.13
2018-06-05T20:51:11.000Z,36.80
2018-06-05T20:53:39.626Z,33.40
2018-06-05T20:56:08.036Z,36.73
2018-06-05T20:58:36.415Z,33.13
2018-06-05T21:01:04.818Z,35.67
2018-06-05T21:03:33.277Z,35.87
2018-06-05T21:06:01.676Z,34.70
2018-06-05T21:08:32.217Z,36.47
2018-06-05T21:11:00.644Z,40.10
2018-06-05T21:13:29.044Z,39.37
2018-06-05T21:15:57.378Z,43.00
2018-06-05T21:18:25.738Z,41.13
2018-06-05T21:20:54.053Z,38.47
2018-06-05T21:23:22.422Z,37.80
2018-06-05T21:25:50.873Z,33.77
2018-06-05T21:28:19.372Z,36.73
2018-06-05T21:30:47.734Z,32.83
2018-06-05T21:33:16.076Z,36.77
2018-06-05T21:35:44.411Z,37.47
2018-06-05T21:38:12.779Z,32.27
2018-06-05T21:40:41.156Z,35.43
2018-06-05T21:43:09.586Z,34.50
2018-06-05T21:45:37.893Z,32.30
2018-06-05T21:48:06.288Z,30.23
2018-06-05T21:50:34.671Z,32.27
2018-06-05T21:53:03.119Z,34.33
2018-06-05T21:55:31.453Z,32.73
2018-06-05T21:57:59.856Z,36.97
2018-06-05T22:00:28.175Z,36.97
2018-06-05T22:02:56.564Z,32.67
2018-06-05T22:05:24.899Z,32.43
2018-06-05T22:07:53.315Z,33.87
2018-06-05T22:10:21.655Z,36.40
2018-06-05T22:12:49.953Z,34.97
2018-06-05T22:15:18.281Z,37.03
2018-06-05T22:17:46.591Z,37.30
2018-06-05T22:20:14.979Z,39.90
2018-06-05T22:22:43.369Z,34.67
2018-06-05T22:25:11.737Z,34.30
2018-06-05T22:27:40.075Z,29.00
2018-06-05T22:30:08.455Z,36.10
2018-06-05T22:32:36.755Z,30.90
2018-06-05T22:35:05.265Z,38.97
2018-06-05T22:37:33.606Z,36.57
2018-06-05T22:40:01.945Z,36.23
2018-06-05T22:42:30.271Z,36.97
2018-06-05T22:44:58.635Z,37.00
2018-06-05T22:47:26.993Z,38.80
2018-06-05T22:49:55.310Z,39.00
2018-06-05T22:52:23.669Z,31.37
2018-06-05T22:54:51.968Z,35.63
2018-06-05T22:57:20.274Z,40.97
2018-06-05T22:59:48.635Z,37.10
2018-06-05T23:02:17.021Z,37.70
2018-06-05T23:04:45.384Z,36.47
2018-06-05T23:07:13.744Z,38.60
2018-06-05T23:09:42.072Z,35.47
2018-06-05T23:12:10.425Z,35.57
2018-06-05T23:14:38.775Z,35.53
2018-06-05T23:17:07.099Z,36.17
2018-06-05T23:19:35.431Z,39.10
2018-06-05T23:22:03.796Z,36.10
2018-06-05T23:24:32.117Z,38.80
2018-06-05T23:27:00.504Z,36.57
2018-06-05T23:29:28.894Z,32.30
2018-06-05T23:31:57.268Z,32.73
2018-06-05T23:34:25.591Z,44.00
2018-06-05T23:36:53.904Z,42.87
2018-06-05T23:39:22.222Z,39.93
2018-06-05T23:41:50.551Z,33.60
2018-06-05T23:44:18.915Z,38.50
2018-06-05T23:46:47.250Z,35.63
2018-06-05T23:49:15.575Z,39.23
2018-06-05T23:51:43.903Z,35.13
2018-06-05T23:54:12.265Z,38.03
2018-06-05T23:56:40.637Z,40.63
2018-06-05T23:59:09.064Z,38.00
